createdAt,value
2022-08-30T00:02:25.316Z,18.10
2022-08-30T00:05:19.714Z,18.00
2022-08-30T00:08:10.854Z,18.00
2022-08-30T00:11:07.038Z,18.00
2022-08-30T00:13:59.335Z,18.00
2022-08-30T00:16:47.203Z,18.00
2022-08-30T00:19:38.144Z,17.90
2022-08-30T00:22:33.002Z,17.90
2022-08-30T00:25:24.606Z,16.60
2022-08-30T00:28:16.839Z,17.70
2022-08-30T00:31:15.374Z,17.80
2022-08-30T00:34:07.675Z,17.80
2022-08-30T00:36:56.692Z,17.80
2022-08-30T00:39:54.057Z,17.70
2022-08-30T00:42:50.680Z,17.70
2022-08-30T00:45:39.915Z,16.70
2022-08-30T00:48:30.765Z,16.70
2022-08-30T00:51:20.743Z,17.60
2022-08-30T00:54:09.174Z,17.50
2022-08-30T00:56:59.269Z,17.50
2022-08-30T00:59:49.940Z,17.40
2022-08-30T01:02:40.681Z,16.20
2022-08-30T01:05:29.016Z,17.40
2022-08-30T01:08:18.892Z,17.30
2022-08-30T01:11:06.838Z,17.40
2022-08-30T01:13:59.624Z,17.40
2022-08-30T01:17:08.356Z,16.30
2022-08-30T01:20:03.136Z,17.40
2022-08-30T01:23:06.568Z,17.00
2022-08-30T01:25:56.529Z,17.40
2022-08-30T01:28:50.764Z,16.90
2022-08-30T01:31:46.300Z,17.30
2022-08-30T01:34:38.409Z,16.20
2022-08-30T01:37:32.717Z,17.20
2022-08-30T01:40:23.847Z,17.20
2022-08-30T01:43:13.897Z,17.10
2022-08-30T01:46:02.151Z,17.10
2022-08-30T01:48:52.991Z,17.10
2022-08-30T01:51:42.430Z,17.00
2022-08-30T01:54:36.924Z,16.50
2022-08-30T01:57:27.718Z,17.20
2022-08-30T02:00:41.705Z,16.60
2022-08-30T02:03:32.277Z,17.30
2022-08-30T02:06:25.578Z,17.30
2022-08-30T02:09:15.085Z,17.20
2022-08-30T02:12:08.751Z,17.20
2022-08-30T02:14:58.898Z,17.20
2022-08-30T02:17:51.387Z,17.10
2022-08-30T02:21:01.706Z,17.10
2022-08-30T02:24:00.928Z,17.10
2022-08-30T02:26:52.192Z,14.80
2022-08-30T02:29:54.019Z,16.90
2022-08-30T02:32:46.276Z,16.80
2022-08-30T02:35:35.227Z,14.50
2022-08-30T02:38:23.599Z,16.80
2022-08-30T02:41:16.240Z,16.70
2022-08-30T02:44:04.919Z,16.60
2022-08-30T02:46:52.459Z,16.60
2022-08-30T02:49:41.907Z,16.30
2022-08-30T02:52:30.652Z,16.60
2022-08-30T02:55:20.364Z,16.50
2022-08-30T02:58:12.204Z,16.50
2022-08-30T03:01:01.040Z,16.40
2022-08-30T03:03:49.169Z,16.40
2022-08-30T03:06:38.847Z,16.40
2022-08-30T03:09:26.448Z,16.30
2022-08-30T03:12:14.918Z,16.30
2022-08-30T03:15:07.143Z,16.30
2022-08-30T03:17:57.858Z,16.30
2022-08-30T03:20:54.151Z,16.30
2022-08-30T03:23:45.172Z,16.20
2022-08-30T03:26:33.461Z,16.30
2022-08-30T03:29:22.289Z,16.30
2022-08-30T03:32:32.857Z,16.30
2022-08-30T03:35:24.288Z,16.30
2022-08-30T03:38:12.373Z,16.20
2022-08-30T03:41:01.686Z,16.20
2022-08-30T03:43:51.519Z,16.10
2022-08-30T03:46:47.181Z,16.20
2022-08-30T03:49:36.925Z,15.80
2022-08-30T03:52:26.848Z,16.30
2022-08-30T03:55:14.513Z,16.30
2022-08-30T03:58:03.489Z,16.30
2022-08-30T04:00:50.930Z,16.30
2022-08-30T04:03:40.950Z,16.40
2022-08-30T04:06:28.850Z,16.40
2022-08-30T04:09:16.710Z,16.40
2022-08-30T04:12:04.529Z,16.40
2022-08-30T04:14:54.283Z,16.30
2022-08-30T04:17:41.970Z,16.30
2022-08-30T04:20:29.837Z,16.20
2022-08-30T04:23:17.750Z,16.20
2022-08-30T04:26:05.918Z,16.20
2022-08-30T04:28:54.623Z,16.10
2022-08-30T04:31:44.008Z,16.10
2022-08-30T04:34:33.672Z,16.10
2022-08-30T04:37:21.127Z,16.10
2022-08-30T04:40:10.596Z,16.10
2022-08-30T04:42:59.477Z,16.10
2022-08-30T04:45:48.827Z,16.00
2022-08-30T04:48:37.773Z,16.10
2022-08-30T04:51:25.144Z,15.80
2022-08-30T04:54:12.807Z,16.00
2022-08-30T04:57:00.302Z,16.10
2022-08-30T04:59:48.163Z,16.10
2022-08-30T05:02:36.600Z,16.10
2022-08-30T05:05:41.294Z,16.10
2022-08-30T05:08:28.651Z,16.10
2022-08-30T05:11:16.986Z,16.20
2022-08-30T05:14:04.437Z,16.20
2022-08-30T05:16:52.161Z,16.20
2022-08-30T05:19:39.707Z,16.20
2022-08-30T05:22:28.678Z,16.20
2022-08-30T05:25:38.359Z,16.20
2022-08-30T05:28:59.062Z,16.20
2022-08-30T05:31:48.951Z,13.80
2022-08-30T05:34:36.255Z,16.20
2022-08-30T05:37:28.191Z,16.30
2022-08-30T05:40:27.006Z,16.30
2022-08-30T05:43:38.909Z,16.40
2022-08-30T05:46:58.473Z,16.30
2022-08-30T05:50:18.617Z,16.50
2022-08-30T05:53:06.919Z,16.60
2022-08-30T05:56:31.786Z,16.60
2022-08-30T05:59:29.071Z,16.60
2022-08-30T06:02:45.331Z,16.70
2022-08-30T06:05:43.469Z,16.70
2022-08-30T06:27:41.790Z,16.90
2022-08-30T13:33:10.523Z,24.70
2022-08-30T13:39:21.683Z,22.90
2022-08-30T14:08:48.705Z,25.10
